Time;durP1;ratioP1;P1;durP2;ratioP2;P2;SDS_P1;SDS_P2;PMS_P1;PMS_P2;Temp;Humidity;BMP_temperature;BMP_pressure;BME280_temperature;BME280_humidity;BME280_pressure;Samples;Min_cycle;Max_cycle;Signal;HPM_P1;HPM_P2
2023/05/03 00:02:15;;;;;;;5.32;2.10;;;6.50;99.90;;;;;;5040830;28;20095;-65
2023/05/03 00:04:40;;;;;;;4.93;1.80;;;6.50;99.90;;;;;;5038705;28;20076;-66
2023/05/03 00:07:07;;;;;;;4.30;1.85;;;6.50;99.90;;;;;;5044940;28;20138;-65
2023/05/03 00:09:34;;;;;;;4.60;1.83;;;6.50;99.90;;;;;;5036291;28;20575;-65
2023/05/03 00:12:00;;;;;;;6.22;2.10;;;6.50;99.90;;;;;;5052138;28;20086;-66
2023/05/03 00:14:26;;;;;;;5.38;1.98;;;6.40;99.90;;;;;;5040054;28;20037;-66
2023/05/03 00:16:52;;;;;;;5.20;2.08;;;6.40;99.90;;;;;;5042281;28;20049;-66
2023/05/03 00:19:18;;;;;;;4.03;1.98;;;6.40;99.90;;;;;;5037197;28;20044;-65
2023/05/03 00:21:46;;;;;;;5.18;1.83;;;6.30;99.90;;;;;;5029649;28;20057;-65
2023/05/03 00:24:12;;;;;;;5.72;1.90;;;6.30;99.90;;;;;;5031484;28;20041;-65
2023/05/03 00:26:38;;;;;;;6.20;2.25;;;6.30;99.90;;;;;;5046536;28;20395;-65
2023/05/03 00:29:03;;;;;;;7.10;2.00;;;6.30;99.90;;;;;;5038350;28;20049;-66
2023/05/03 00:31:29;;;;;;;5.82;2.28;;;6.20;99.90;;;;;;5040358;28;20073;-65
2023/05/03 00:33:54;;;;;;;5.35;2.28;;;6.20;99.90;;;;;;5029950;28;20041;-65
2023/05/03 00:36:20;;;;;;;6.05;2.22;;;6.20;99.90;;;;;;5041373;28;20485;-65
2023/05/03 00:38:45;;;;;;;4.15;2.00;;;6.20;99.90;;;;;;5040129;28;20037;-65
2023/05/03 00:41:12;;;;;;;5.00;2.17;;;6.10;99.90;;;;;;5032962;28;20128;-66
2023/05/03 00:43:38;;;;;;;5.95;2.35;;;6.10;99.90;;;;;;5041003;28;20045;-65
2023/05/03 00:46:05;;;;;;;6.25;2.28;;;6.10;99.90;;;;;;5039658;28;20037;-66
2023/05/03 00:48:32;;;;;;;6.28;2.70;;;6.10;99.90;;;;;;5016953;28;20045;-66
2023/05/03 00:51:00;;;;;;;3.97;1.90;;;6.10;99.90;;;;;;5039575;28;20052;-66
2023/05/03 00:53:26;;;;;;;4.35;2.20;;;6.10;99.90;;;;;;5046070;28;20227;-64
2023/05/03 00:55:54;;;;;;;6.60;2.20;;;6.10;99.90;;;;;;5035449;28;20081;-65
2023/05/03 00:58:20;;;;;;;5.13;2.08;;;6.00;99.90;;;;;;5031821;28;20516;-64
2023/05/03 01:00:47;;;;;;;5.13;2.10;;;6.00;99.90;;;;;;5044312;28;20349;-64
2023/05/03 01:03:12;;;;;;;5.07;2.42;;;5.90;99.90;;;;;;5047876;28;20203;-65
2023/05/03 01:05:50;;;;;;;5.13;1.75;;;6.00;99.90;;;;;;5038236;28;20548;-65
2023/05/03 01:08:37;;;;;;;6.13;2.30;;;5.90;99.90;;;;;;5045686;28;20041;-65
2023/05/03 01:11:22;;;;;;;4.55;2.10;;;5.90;99.90;;;;;;5042234;28;20127;-65
2023/05/03 01:13:54;;;;;;;6.55;2.03;;;5.90;99.90;;;;;;5035928;28;20037;-67
2023/05/03 01:16:37;;;;;;;5.88;2.38;;;5.80;99.90;;;;;;5039156;28;20067;-65
2023/05/03 01:19:18;;;;;;;4.55;2.42;;;5.80;99.90;;;;;;5044651;28;20051;-66
2023/05/03 01:21:54;;;;;;;4.57;2.30;;;5.80;99.90;;;;;;5043258;28;20040;-66
2023/05/03 01:24:25;;;;;;;6.68;2.55;;;5.70;99.90;;;;;;5047803;28;20436;-65
2023/05/03 01:26:50;;;;;;;5.80;2.42;;;5.70;99.90;;;;;;5044660;28;20140;-65
2023/05/03 01:29:16;;;;;;;5.30;2.15;;;5.70;99.90;;;;;;5048744;28;20045;-66
2023/05/03 01:31:56;;;;;;;4.35;2.30;;;5.70;99.90;;;;;;5032957;28;20105;-65
2023/05/03 01:34:52;;;;;;;5.15;2.45;;;5.60;99.90;;;;;;5047447;28;20040;-65
2023/05/03 01:37:18;;;;;;;5.75;2.20;;;5.60;99.90;;;;;;5060147;28;20041;-66
2023/05/03 01:39:50;;;;;;;3.85;2.00;;;5.50;99.90;;;;;;5048167;28;20041;-64
2023/05/03 01:42:16;;;;;;;9.15;2.30;;;5.50;99.90;;;;;;5047143;28;20099;-66
2023/05/03 01:44:43;;;;;;;4.20;2.10;;;5.50;99.90;;;;;;5040394;28;20128;-65
2023/05/03 01:47:09;;;;;;;5.63;2.30;;;5.50;99.90;;;;;;5032929;28;20481;-65
2023/05/03 01:49:35;;;;;;;4.15;2.00;;;5.50;99.90;;;;;;5043542;28;20491;-64
2023/05/03 01:52:00;;;;;;;5.28;2.17;;;5.40;99.90;;;;;;5050219;28;20124;-66
2023/05/03 01:54:26;;;;;;;5.57;2.10;;;5.40;99.90;;;;;;5046100;28;20053;-65
2023/05/03 01:56:52;;;;;;;7.05;2.22;;;5.40;99.90;;;;;;5033830;28;20492;-65
2023/05/03 01:59:17;;;;;;;5.65;2.13;;;5.40;99.90;;;;;;5042960;28;20033;-65
2023/05/03 02:01:43;;;;;;;5.35;2.60;;;5.40;99.90;;;;;;5041287;28;20488;-65
2023/05/03 02:04:09;;;;;;;4.32;2.05;;;5.30;99.90;;;;;;5037735;28;20056;-65
2023/05/03 02:06:35;;;;;;;5.65;2.67;;;5.30;99.90;;;;;;5045850;28;20057;-66
2023/05/03 02:09:01;;;;;;;5.05;2.25;;;5.30;99.90;;;;;;5043426;28;20499;-65
2023/05/03 02:11:27;;;;;;;6.00;2.30;;;5.20;99.90;;;;;;5048329;28;20041;-66
2023/05/03 02:13:52;;;;;;;5.32;2.45;;;5.20;99.90;;;;;;5035605;28;20046;-67
2023/05/03 02:16:18;;;;;;;5.88;2.38;;;5.20;99.90;;;;;;5039755;28;20623;-65
2023/05/03 02:18:47;;;;;;;6.22;2.50;;;5.20;99.90;;;;;;5031816;28;20053;-65
2023/05/03 02:21:12;;;;;;;6.55;2.58;;;5.10;99.90;;;;;;5048280;28;20087;-65
2023/05/03 02:23:38;;;;;;;6.93;2.33;;;5.10;99.90;;;;;;5036450;28;20045;-65
2023/05/03 02:26:04;;;;;;;4.45;2.55;;;5.10;99.90;;;;;;5048505;28;20056;-65
2023/05/03 02:28:30;;;;;;;4.03;2.15;;;5.00;99.90;;;;;;5046217;28;20037;-66
2023/05/03 02:30:55;;;;;;;5.90;2.38;;;5.00;99.90;;;;;;5042697;28;20087;-66
2023/05/03 02:33:21;;;;;;;4.63;2.20;;;5.00;99.90;;;;;;5031472;28;20073;-65
2023/05/03 02:35:47;;;;;;;4.15;2.45;;;5.00;99.90;;;;;;5032621;28;20494;-68
2023/05/03 02:38:12;;;;;;;5.60;2.30;;;5.00;99.90;;;;;;5041685;28;20125;-66
2023/05/03 02:40:38;;;;;;;4.72;2.20;;;5.00;99.90;;;;;;5036065;28;20120;-66
2023/05/03 02:43:04;;;;;;;4.80;2.53;;;4.90;99.90;;;;;;5041878;28;20049;-66
2023/05/03 02:45:30;;;;;;;5.05;2.70;;;4.90;99.90;;;;;;5038633;28;20444;-65
2023/05/03 02:47:55;;;;;;;4.45;2.40;;;4.90;99.90;;;;;;5046079;28;20055;-65
2023/05/03 02:50:21;;;;;;;5.15;2.55;;;4.90;99.90;;;;;;5042417;28;20057;-66
2023/05/03 02:52:46;;;;;;;5.75;2.45;;;4.90;99.90;;;;;;5042680;28;20049;-66
2023/05/03 02:55:12;;;;;;;5.03;2.40;;;4.80;99.90;;;;;;5042389;28;20077;-66
2023/05/03 02:57:38;;;;;;;5.70;2.70;;;4.80;99.90;;;;;;5043053;28;20049;-66
2023/05/03 03:00:05;;;;;;;3.95;2.35;;;4.80;99.90;;;;;;5040672;28;20045;-67
2023/05/03 03:02:31;;;;;;;4.63;2.30;;;4.80;99.90;;;;;;5039507;28;20042;-66
2023/05/03 03:04:56;;;;;;;6.15;2.63;;;4.70;99.90;;;;;;5050181;28;20452;-66
2023/05/03 03:07:22;;;;;;;7.35;3.00;;;4.70;99.90;;;;;;5047166;28;20082;-66
2023/05/03 03:09:47;;;;;;;6.60;2.60;;;4.70;99.90;;;;;;5039248;28;20593;-66
2023/05/03 03:12:13;;;;;;;5.22;2.90;;;4.70;99.90;;;;;;5030918;28;20049;-66
2023/05/03 03:14:40;;;;;;;5.70;2.63;;;4.70;99.90;;;;;;5045711;28;20051;-66
2023/05/03 03:17:08;;;;;;;5.60;3.28;;;4.70;99.90;;;;;;5048729;28;20138;-67
2023/05/03 03:19:34;;;;;;;6.47;2.30;;;4.70;99.90;;;;;;5040365;28;20037;-66
2023/05/03 03:22:00;;;;;;;6.75;2.75;;;4.70;99.90;;;;;;5050379;28;20044;-67
2023/05/03 03:24:25;;;;;;;5.07;2.38;;;4.70;99.90;;;;;;5046796;28;20037;-66
2023/05/03 03:26:51;;;;;;;5.53;2.53;;;4.60;99.90;;;;;;5032196;28;20038;-66
2023/05/03 03:29:17;;;;;;;4.35;2.35;;;4.60;99.90;;;;;;5030115;28;20095;-65
2023/05/03 03:31:43;;;;;;;5.20;2.50;;;4.50;99.90;;;;;;5033034;28;20119;-65
2023/05/03 03:34:12;;;;;;;5.40;2.63;;;4.50;99.90;;;;;;5048653;28;20186;-67
2023/05/03 03:36:38;;;;;;;5.38;2.42;;;4.50;99.90;;;;;;5040181;28;20403;-66
2023/05/03 03:39:04;;;;;;;5.72;2.58;;;4.50;99.90;;;;;;5037699;28;20053;-67
2023/05/03 03:41:31;;;;;;;4.30;2.10;;;4.50;99.90;;;;;;5038009;28;20558;-66
2023/05/03 03:43:57;;;;;;;4.45;2.13;;;4.50;99.90;;;;;;5032742;28;20045;-66
2023/05/03 03:46:23;;;;;;;3.95;2.17;;;4.40;99.90;;;;;;5035748;28;20071;-67
2023/05/03 03:48:49;;;;;;;4.78;2.50;;;4.40;99.90;;;;;;5034292;28;20097;-66
2023/05/03 03:51:15;;;;;;;3.92;2.08;;;4.40;99.90;;;;;;5046972;28;20036;-66
2023/05/03 03:53:41;;;;;;;4.68;2.47;;;4.40;99.90;;;;;;5041734;28;20091;-65
2023/05/03 03:56:06;;;;;;;5.88;2.75;;;4.40;99.90;;;;;;5045010;28;20045;-65
2023/05/03 03:58:32;;;;;;;7.18;2.83;;;4.30;99.90;;;;;;5049151;28;20056;-65
2023/05/03 04:00:59;;;;;;;4.40;2.55;;;4.30;99.90;;;;;;5048387;28;20037;-65
2023/05/03 04:03:25;;;;;;;7.03;2.30;;;4.30;99.90;;;;;;5045591;28;20037;-65
2023/05/03 04:05:51;;;;;;;5.50;2.47;;;4.30;99.90;;;;;;5047208;28;20044;-66
2023/05/03 04:08:16;;;;;;;3.92;2.45;;;4.20;99.90;;;;;;5041463;28;20570;-65
2023/05/03 04:10:42;;;;;;;4.35;2.20;;;4.20;99.90;;;;;;5040076;28;20038;-66
2023/05/03 04:13:08;;;;;;;4.15;2.03;;;4.20;99.90;;;;;;5037156;28;20387;-66
2023/05/03 04:15:33;;;;;;;4.65;2.10;;;4.20;99.90;;;;;;5038288;28;20045;-67
2023/05/03 04:17:59;;;;;;;5.25;2.25;;;4.20;99.90;;;;;;5045579;28;20412;-65
2023/05/03 04:20:25;;;;;;;4.50;2.30;;;4.20;99.90;;;;;;5038566;28;20034;-65
2023/05/03 04:22:50;;;;;;;4.35;2.25;;;4.20;99.90;;;;;;5048760;28;20041;-64
2023/05/03 04:25:17;;;;;;;4.72;2.65;;;4.20;99.90;;;;;;5048850;28;20068;-65
2023/05/03 04:27:43;;;;;;;6.28;2.33;;;4.20;99.90;;;;;;5048187;28;20155;-65
2023/05/03 04:30:10;;;;;;;5.10;2.13;;;4.30;99.90;;;;;;5044992;28;20045;-66
2023/05/03 04:32:36;;;;;;;6.75;2.88;;;4.30;99.90;;;;;;5045632;28;20070;-66
2023/05/03 04:35:09;;;;;;;5.80;2.50;;;4.20;99.90;;;;;;5049722;28;20410;-67
2023/05/03 04:37:35;;;;;;;5.78;2.25;;;4.30;99.90;;;;;;5049944;28;20069;-65
2023/05/03 04:40:06;;;;;;;6.65;2.40;;;4.30;99.90;;;;;;5042544;28;20054;-65
2023/05/03 04:42:32;;;;;;;4.93;2.80;;;4.30;99.90;;;;;;5029928;28;20115;-65
2023/05/03 04:44:57;;;;;;;5.78;2.80;;;4.40;99.90;;;;;;5045148;28;20052;-65
2023/05/03 04:47:24;;;;;;;5.60;2.80;;;4.40;99.90;;;;;;5043396;28;20045;-65
2023/05/03 04:49:50;;;;;;;5.43;2.85;;;4.50;99.90;;;;;;5036859;28;20041;-66
2023/05/03 04:52:16;;;;;;;7.28;2.80;;;4.60;99.90;;;;;;5049852;28;20037;-66
2023/05/03 04:54:41;;;;;;;4.80;2.70;;;4.70;99.90;;;;;;5048527;28;20227;-64
2023/05/03 04:57:09;;;;;;;5.25;2.55;;;4.80;99.90;;;;;;5038240;28;20133;-64
2023/05/03 04:59:35;;;;;;;7.90;2.75;;;5.00;99.90;;;;;;5049216;28;20091;-66
2023/05/03 05:02:00;;;;;;;5.45;2.78;;;5.20;99.90;;;;;;5037154;28;20124;-67
2023/05/03 05:04:26;;;;;;;6.75;3.03;;;5.30;99.90;;;;;;5048997;28;20212;-65
2023/05/03 05:06:53;;;;;;;6.47;3.17;;;5.50;99.90;;;;;;5046699;28;20064;-65
2023/05/03 05:09:26;;;;;;;6.32;3.28;;;5.60;99.90;;;;;;5049677;28;20060;-65
2023/05/03 05:11:52;;;;;;;6.95;3.25;;;5.80;99.90;;;;;;5034804;28;20045;-65
2023/05/03 05:14:18;;;;;;;7.65;3.58;;;5.90;99.90;;;;;;5038668;28;20094;-65
2023/05/03 05:16:44;;;;;;;6.32;3.80;;;6.10;99.90;;;;;;5046838;28;20131;-66
2023/05/03 05:19:09;;;;;;;7.38;3.80;;;6.20;99.90;;;;;;5045654;28;20045;-66
2023/05/03 05:21:35;;;;;;;6.28;3.38;;;6.30;99.90;;;;;;5052702;28;20117;-66
2023/05/03 05:24:00;;;;;;;8.07;4.38;;;6.50;99.90;;;;;;5051378;28;20068;-66
2023/05/03 05:26:27;;;;;;;6.18;3.63;;;6.60;99.90;;;;;;5051988;28;20068;-66
2023/05/03 05:28:53;;;;;;;8.02;4.20;;;6.70;99.90;;;;;;5034131;28;20057;-66
2023/05/03 05:31:18;;;;;;;8.32;4.43;;;6.80;99.90;;;;;;5033344;28;20054;-66
2023/05/03 05:33:46;;;;;;;8.10;4.03;;;6.90;99.90;;;;;;5034916;28;20049;-66
2023/05/03 05:36:13;;;;;;;9.50;4.00;;;7.00;99.90;;;;;;5053131;28;20102;-64
2023/05/03 05:38:39;;;;;;;6.50;3.47;;;7.10;99.90;;;;;;5053780;28;20037;-65
2023/05/03 05:41:05;;;;;;;7.40;3.65;;;7.20;99.90;;;;;;5053541;28;20106;-65
2023/05/03 05:43:30;;;;;;;6.85;3.40;;;7.20;99.90;;;;;;5040190;28;20037;-64
2023/05/03 05:45:59;;;;;;;5.75;3.40;;;7.30;99.90;;;;;;5033149;28;20500;-64
2023/05/03 05:48:24;;;;;;;8.20;3.63;;;7.40;99.90;;;;;;5032945;28;20049;-64
2023/05/03 05:50:50;;;;;;;6.38;3.33;;;7.50;99.90;;;;;;5050350;28;20119;-65
2023/05/03 05:53:16;;;;;;;6.45;3.90;;;7.60;99.90;;;;;;5052885;28;20399;-65
2023/05/03 05:55:41;;;;;;;7.63;3.30;;;7.70;99.90;;;;;;5053150;28;20115;-64
2023/05/03 05:58:08;;;;;;;8.55;4.05;;;7.80;99.90;;;;;;5041804;28;20087;-65
2023/05/03 06:00:34;;;;;;;9.70;5.03;;;7.90;99.90;;;;;;5032728;28;20527;-65
2023/05/03 06:03:00;;;;;;;8.10;4.10;;;8.00;99.90;;;;;;5032764;28;20056;-65
2023/05/03 06:05:25;;;;;;;7.45;4.38;;;8.10;99.90;;;;;;5041281;28;20044;-64
2023/05/03 06:07:51;;;;;;;7.65;3.95;;;8.20;99.90;;;;;;5052722;28;20068;-64
2023/05/03 06:10:16;;;;;;;6.80;3.65;;;8.30;99.90;;;;;;5052778;28;20372;-65
2023/05/03 06:12:42;;;;;;;6.55;4.00;;;8.40;99.90;;;;;;5050989;28;20174;-65
2023/05/03 06:15:08;;;;;;;6.57;3.53;;;8.50;99.90;;;;;;5041802;28;20361;-65
2023/05/03 06:17:34;;;;;;;6.95;3.72;;;8.60;99.90;;;;;;5032268;28;20041;-65
2023/05/03 06:20:00;;;;;;;6.15;3.63;;;8.80;99.90;;;;;;5040957;28;20045;-64
2023/05/03 06:22:26;;;;;;;6.22;3.25;;;8.90;99.90;;;;;;5046296;28;20487;-65
2023/05/03 06:24:51;;;;;;;7.75;3.67;;;8.90;99.90;;;;;;5050244;28;20368;-66
2023/05/03 06:27:17;;;;;;;6.35;3.58;;;8.90;99.90;;;;;;5051974;28;20041;-65
2023/05/03 06:29:43;;;;;;;7.25;3.53;;;8.90;99.90;;;;;;5052350;28;20055;-65
2023/05/03 06:32:09;;;;;;;5.72;3.00;;;8.90;99.90;;;;;;5029698;28;20060;-66
2023/05/03 06:34:36;;;;;;;6.35;3.40;;;8.90;99.90;;;;;;5032182;28;20480;-66
2023/05/03 06:37:02;;;;;;;5.80;3.20;;;8.90;99.90;;;;;;5032109;28;20049;-65
2023/05/03 06:39:27;;;;;;;4.65;2.40;;;8.90;99.90;;;;;;5032266;28;20060;-65
2023/05/03 06:41:53;;;;;;;7.13;2.75;;;9.00;99.90;;;;;;5032166;28;20056;-64
2023/05/03 06:44:19;;;;;;;5.63;2.47;;;9.00;99.90;;;;;;5031980;28;20429;-65
2023/05/03 06:46:45;;;;;;;5.72;2.83;;;9.00;99.90;;;;;;5031964;28;20515;-65
2023/05/03 06:49:10;;;;;;;5.60;2.40;;;9.20;99.90;;;;;;5038288;28;20487;-65
2023/05/03 06:51:36;;;;;;;5.20;2.38;;;9.30;99.90;;;;;;5051836;28;20127;-65
2023/05/03 06:54:05;;;;;;;6.22;2.28;;;9.40;99.90;;;;;;5038851;28;20129;-65
2023/05/03 06:56:32;;;;;;;6.43;2.30;;;9.40;99.90;;;;;;5031983;28;20061;-64
2023/05/03 06:58:58;;;;;;;5.25;2.40;;;9.50;99.90;;;;;;5031532;28;20044;-64
2023/05/03 07:01:24;;;;;;;4.80;2.08;;;9.50;99.90;;;;;;5034316;28;20481;-65
2023/05/03 07:03:49;;;;;;;5.70;1.95;;;9.60;99.90;;;;;;5050491;28;20041;-64
2023/05/03 07:06:15;;;;;;;7.43;2.15;;;9.70;99.90;;;;;;5051581;28;20045;-65
2023/05/03 07:08:41;;;;;;;4.90;1.60;;;9.80;99.90;;;;;;5038719;28;20093;-65
2023/05/03 07:11:07;;;;;;;4.10;1.88;;;10.00;99.90;;;;;;5031891;28;20409;-66
2023/05/03 07:13:32;;;;;;;5.45;1.67;;;10.20;99.90;;;;;;5031680;28;20099;-64
2023/05/03 07:15:59;;;;;;;4.90;1.90;;;10.30;99.90;;;;;;5031528;28;20354;-65
2023/05/03 07:18:24;;;;;;;5.68;1.90;;;10.40;99.90;;;;;;5030023;28;20103;-65
2023/05/03 07:20:50;;;;;;;4.88;1.65;;;10.50;99.90;;;;;;5031524;28;20038;-66
2023/05/03 07:23:15;;;;;;;3.67;1.40;;;10.40;99.90;;;;;;5031462;28;20051;-65
2023/05/03 07:25:42;;;;;;;3.03;1.50;;;10.50;99.90;;;;;;5031178;28;20045;-64
2023/05/03 07:28:07;;;;;;;3.53;1.00;;;10.70;99.90;;;;;;5031374;28;20128;-65
2023/05/03 07:30:33;;;;;;;7.13;1.50;;;10.90;99.90;;;;;;5030167;28;20129;-65
2023/05/03 07:32:59;;;;;;;5.63;1.45;;;11.00;99.90;;;;;;5047030;28;20136;-65
2023/05/03 07:35:28;;;;;;;5.13;1.23;;;11.10;99.90;;;;;;5031353;28;20041;-65
2023/05/03 07:37:53;;;;;;;4.72;1.58;;;11.40;99.90;;;;;;5030585;28;20120;-65
2023/05/03 07:40:19;;;;;;;3.95;1.20;;;11.50;99.90;;;;;;5031334;28;20084;-65
2023/05/03 07:42:45;;;;;;;4.05;1.10;;;11.60;99.90;;;;;;5031173;28;20041;-65
2023/05/03 07:45:11;;;;;;;2.35;1.00;;;11.90;99.90;;;;;;5030994;28;20603;-65
2023/05/03 07:47:38;;;;;;;4.53;1.40;;;12.10;99.90;;;;;;5031089;28;20124;-65
2023/05/03 07:50:05;;;;;;;6.10;1.40;;;12.40;99.90;;;;;;5045902;28;20120;-65
2023/05/03 07:52:42;;;;;;;3.72;1.10;;;12.70;99.90;;;;;;5047597;28;20041;-64
2023/05/03 07:55:08;;;;;;;4.75;1.27;;;12.80;99.90;;;;;;5030865;28;20175;-63
2023/05/03 07:57:35;;;;;;;3.80;1.20;;;12.90;99.90;;;;;;5029532;28;20120;-64
2023/05/03 08:00:01;;;;;;;3.70;1.38;;;12.90;99.90;;;;;;5031019;28;20053;-65
2023/05/03 08:02:27;;;;;;;4.03;1.02;;;13.00;99.90;;;;;;5034403;28;20562;-64
2023/05/03 08:04:53;;;;;;;3.03;1.20;;;13.10;99.90;;;;;;5050822;28;20076;-65
2023/05/03 08:07:20;;;;;;;5.40;1.20;;;13.20;99.90;;;;;;5034982;28;20071;-64
2023/05/03 08:09:47;;;;;;;2.53;1.00;;;13.30;99.90;;;;;;5029671;28;20095;-65
2023/05/03 08:12:13;;;;;;;2.85;1.20;;;13.30;99.90;;;;;;5045565;28;20075;-65
2023/05/03 08:14:39;;;;;;;3.40;1.20;;;13.40;99.90;;;;;;5030582;28;20452;-65
2023/05/03 08:17:05;;;;;;;5.10;1.60;;;13.10;99.90;;;;;;5029851;28;20045;-66
2023/05/03 08:19:31;;;;;;;3.28;1.30;;;13.10;99.80;;;;;;5030392;28;20448;-65
2023/05/03 08:21:59;;;;;;;3.88;1.30;;;13.20;99.90;;;;;;5029889;28;20550;-65
2023/05/03 08:24:25;;;;;;;4.15;1.30;;;13.00;99.90;;;;;;5030349;28;20220;-65
2023/05/03 08:26:51;;;;;;;6.47;1.50;;;13.00;99.90;;;;;;5030227;28;20041;-65
2023/05/03 08:29:17;;;;;;;2.60;1.10;;;12.90;99.90;;;;;;5030488;28;20045;-65
2023/05/03 08:31:42;;;;;;;3.95;1.30;;;12.90;99.90;;;;;;5043331;28;20041;-65
2023/05/03 08:34:09;;;;;;;3.17;1.30;;;12.80;99.90;;;;;;5049091;28;20491;-65
2023/05/03 08:36:37;;;;;;;4.57;1.67;;;12.70;99.90;;;;;;5040278;28;20049;-66
2023/05/03 08:39:05;;;;;;;3.47;1.50;;;12.70;99.90;;;;;;5030185;28;20052;-65
2023/05/03 08:41:32;;;;;;;4.85;1.60;;;12.60;99.90;;;;;;5028981;28;20103;-64
2023/05/03 08:43:59;;;;;;;3.08;1.25;;;12.60;99.90;;;;;;5030260;28;20142;-65
2023/05/03 08:46:24;;;;;;;7.55;1.73;;;12.70;99.90;;;;;;5030334;28;20426;-65
2023/05/03 08:48:51;;;;;;;4.20;1.50;;;12.80;99.90;;;;;;5039360;28;20116;-65
2023/05/03 08:51:18;;;;;;;5.13;1.45;;;12.90;99.90;;;;;;5054140;28;20051;-65
2023/05/03 08:53:44;;;;;;;3.70;1.48;;;13.00;99.90;;;;;;5048180;28;20128;-64
2023/05/03 08:56:15;;;;;;;4.40;1.92;;;12.80;99.90;;;;;;5032933;28;20464;-65
2023/05/03 08:58:40;;;;;;;5.18;1.50;;;12.60;99.90;;;;;;5034232;28;20103;-65
2023/05/03 09:01:08;;;;;;;8.50;1.98;;;12.30;99.90;;;;;;5041209;28;20029;-66
2023/05/03 09:03:34;;;;;;;4.70;1.67;;;12.20;99.90;;;;;;5035276;28;20080;-65
2023/05/03 09:06:01;;;;;;;4.53;1.77;;;12.30;99.90;;;;;;5047582;28;20041;-65
2023/05/03 09:08:30;;;;;;;6.03;1.50;;;12.40;99.90;;;;;;5053989;28;20469;-64
2023/05/03 09:10:56;;;;;;;5.68;1.60;;;12.20;99.40;;;;;;5053102;28;20103;-66
2023/05/03 09:13:29;;;;;;;4.70;1.52;;;12.20;99.80;;;;;;5053864;28;20044;-64
2023/05/03 09:15:56;;;;;;;3.83;1.50;;;12.10;99.70;;;;;;5054176;28;20045;-66
2023/05/03 09:18:23;;;;;;;3.78;1.63;;;12.10;99.90;;;;;;5034918;28;20041;-66
2023/05/03 09:20:50;;;;;;;4.38;1.65;;;12.20;99.90;;;;;;5053350;28;20053;-65
2023/05/03 09:23:29;;;;;;;4.18;1.77;;;12.40;99.90;;;;;;5053788;28;20044;-66
2023/05/03 09:25:56;;;;;;;6.43;2.15;;;12.70;99.90;;;;;;5050101;28;20088;-65
2023/05/03 09:28:21;;;;;;;4.05;1.85;;;13.00;99.90;;;;;;5033610;28;20091;-64
2023/05/03 09:30:48;;;;;;;5.18;1.80;;;13.10;99.90;;;;;;5031831;28;20140;-64
2023/05/03 09:33:27;;;;;;;4.82;1.60;;;13.20;99.50;;;;;;5033687;28;20044;-65
2023/05/03 09:36:04;;;;;;;4.68;1.40;;;13.20;99.10;;;;;;5045658;28;20068;-65
2023/05/03 09:38:32;;;;;;;5.18;1.80;;;13.10;98.60;;;;;;5053445;28;20124;-65
2023/05/03 09:40:58;;;;;;;6.00;1.45;;;13.00;98.90;;;;;;5041528;28;20049;-65
2023/05/03 09:43:24;;;;;;;3.83;1.70;;;13.00;98.80;;;;;;5033265;28;20053;-64
2023/05/03 09:45:50;;;;;;;5.35;1.77;;;12.90;98.60;;;;;;5033606;28;20057;-65
2023/05/03 09:48:16;;;;;;;5.18;1.90;;;12.80;98.80;;;;;;5037468;28;20040;-65
2023/05/03 09:50:42;;;;;;;4.72;1.77;;;12.80;99.50;;;;;;5052852;28;20096;-63
2023/05/03 09:53:08;;;;;;;5.13;1.77;;;12.80;99.50;;;;;;5046324;28;20415;-65
2023/05/03 09:55:36;;;;;;;4.20;1.77;;;12.80;98.90;;;;;;5045974;28;20057;-64
2023/05/03 09:58:05;;;;;;;4.10;1.50;;;13.00;98.50;;;;;;5050019;28;20046;-65
2023/05/03 10:00:35;;;;;;;4.07;1.38;;;13.00;98.10;;;;;;5045612;28;20083;-65
2023/05/03 10:03:03;;;;;;;5.03;1.77;;;13.00;96.90;;;;;;5044736;28;20530;-64
2023/05/03 10:05:31;;;;;;;4.07;1.80;;;12.90;96.30;;;;;;5052499;28;20040;-64
2023/05/03 10:08:00;;;;;;;4.47;1.63;;;12.80;97.60;;;;;;5052840;28;20079;-64
2023/05/03 10:10:30;;;;;;;3.33;1.77;;;12.70;97.60;;;;;;5052664;28;20122;-64
2023/05/03 10:12:56;;;;;;;4.80;1.75;;;12.70;98.20;;;;;;5035296;28;20049;-65
2023/05/03 10:15:23;;;;;;;4.35;1.77;;;12.90;98.10;;;;;;5032978;28;20041;-65
2023/05/03 10:17:52;;;;;;;4.53;1.40;;;13.10;98.10;;;;;;5032553;28;20080;-65
2023/05/03 10:20:35;;;;;;;4.22;1.63;;;13.20;96.40;;;;;;5047586;28;20526;-65
2023/05/03 10:23:04;;;;;;;4.85;1.90;;;13.30;95.10;;;;;;5043431;28;20044;-64
2023/05/03 10:25:31;;;;;;;4.55;1.60;;;13.50;95.90;;;;;;5044898;28;20488;-65
2023/05/03 10:28:07;;;;;;;4.75;1.85;;;13.60;96.20;;;;;;5050881;28;20140;-64
2023/05/03 10:30:42;;;;;;;3.72;1.83;;;13.80;97.00;;;;;;5051717;28;20059;-65
2023/05/03 10:33:13;;;;;;;6.72;1.92;;;14.00;96.40;;;;;;5032413;28;20057;-66
2023/05/03 10:35:47;;;;;;;4.00;1.77;;;13.90;95.30;;;;;;5052334;28;20064;-65
2023/05/03 10:38:27;;;;;;;4.70;1.88;;;13.90;95.60;;;;;;5052134;28;20422;-64
2023/05/03 10:40:55;;;;;;;4.80;1.65;;;13.80;95.30;;;;;;5037474;28;20045;-64
2023/05/03 10:43:30;;;;;;;5.07;2.08;;;13.40;95.30;;;;;;5032504;28;20143;-65
2023/05/03 10:46:02;;;;;;;;;;;13.30;95.30;;;;;;5032564;28;20469;-66
2023/05/03 10:48:29;;;;;;;6.07;2.33;;;13.30;95.70;;;;;;5040406;28;20343;-65
2023/05/03 10:50:55;;;;;;;4.28;2.00;;;13.60;96.40;;;;;;5032592;28;20487;-65
2023/05/03 10:53:30;;;;;;;4.85;2.33;;;13.70;96.80;;;;;;5030535;28;20067;-65
2023/05/03 10:56:10;;;;;;;4.57;1.80;;;14.00;95.90;;;;;;5031720;28;20091;-65
2023/05/03 10:58:42;;;;;;;3.90;1.88;;;14.10;94.90;;;;;;5030366;28;20041;-64
2023/05/03 11:01:16;;;;;;;4.65;2.00;;;14.20;94.60;;;;;;5031869;28;20103;-64
2023/05/03 11:03:59;;;;;;;6.47;2.10;;;14.40;94.60;;;;;;5034555;28;20037;-64
2023/05/03 11:06:32;;;;;;;5.40;2.05;;;14.50;92.70;;;;;;5038694;28;20343;-64
2023/05/03 11:08:58;;;;;;;4.40;1.90;;;14.30;92.70;;;;;;5046989;28;20091;-65
2023/05/03 11:11:24;;;;;;;3.72;2.10;;;14.40;92.30;;;;;;5049642;28;20094;-65
2023/05/03 11:13:50;;;;;;;3.60;1.88;;;14.50;91.50;;;;;;5051836;28;20037;-64
2023/05/03 11:16:16;;;;;;;4.93;1.90;;;14.50;91.40;;;;;;5050713;28;20041;-64
2023/05/03 11:18:42;;;;;;;6.13;2.20;;;14.50;91.60;;;;;;5049052;28;20044;-64
2023/05/03 11:21:10;;;;;;;5.55;1.90;;;14.60;93.10;;;;;;5047969;28;20052;-63
2023/05/03 11:23:37;;;;;;;5.72;2.15;;;14.60;92.80;;;;;;5051303;28;20404;-64
2023/05/03 11:26:05;;;;;;;5.93;2.50;;;14.60;92.70;;;;;;5038828;28;20042;-65
2023/05/03 11:28:31;;;;;;;5.10;2.08;;;14.40;91.70;;;;;;5031492;28;20122;-65
2023/05/03 11:30:56;;;;;;;5.95;2.10;;;14.20;91.70;;;;;;5031448;28;20049;-64
2023/05/03 11:33:22;;;;;;;5.03;2.25;;;14.20;91.50;;;;;;5031150;28;20429;-65
2023/05/03 11:35:47;;;;;;;4.63;1.90;;;14.20;91.70;;;;;;5031169;28;20049;-64
2023/05/03 11:38:13;;;;;;;3.63;2.05;;;14.50;92.50;;;;;;5030850;28;20041;-65
2023/05/03 11:40:40;;;;;;;5.22;2.10;;;14.50;92.70;;;;;;5030915;28;20041;-65
2023/05/03 11:43:08;;;;;;;4.65;2.30;;;14.60;92.80;;;;;;5029409;28;20449;-66
2023/05/03 11:45:42;;;;;;;6.15;2.35;;;14.70;92.00;;;;;;5031400;28;20046;-65
2023/05/03 11:48:08;;;;;;;6.95;2.55;;;14.70;91.80;;;;;;5034442;28;20045;-64
2023/05/03 11:50:45;;;;;;;4.97;2.08;;;14.80;92.30;;;;;;5043653;28;20037;-65
2023/05/03 11:53:15;;;;;;;6.57;2.13;;;15.00;91.70;;;;;;5050734;28;20045;-65
2023/05/03 11:55:42;;;;;;;6.78;2.53;;;15.10;91.60;;;;;;5040555;28;20501;-65
2023/05/03 11:58:12;;;;;;;4.65;2.20;;;15.20;90.50;;;;;;5029362;28;20049;-66
2023/05/03 12:00:42;;;;;;;6.50;2.35;;;15.20;90.10;;;;;;5031005;28;20133;-65
2023/05/03 12:03:09;;;;;;;5.82;2.25;;;15.40;89.50;;;;;;5030746;28;20041;-64
2023/05/03 12:05:35;;;;;;;6.13;2.58;;;15.40;91.00;;;;;;5029867;28;20041;-65
2023/05/03 12:08:03;;;;;;;5.32;2.42;;;15.30;90.40;;;;;;5030794;28;20043;-65
2023/05/03 12:10:32;;;;;;;4.78;2.20;;;15.30;90.30;;;;;;5031265;28;20477;-65
2023/05/03 12:12:59;;;;;;;5.57;2.30;;;15.30;91.20;;;;;;5030540;28;20398;-65
2023/05/03 12:15:29;;;;;;;5.13;2.20;;;15.30;90.00;;;;;;5030801;28;20111;-66
2023/05/03 12:17:56;;;;;;;5.55;2.20;;;15.40;90.60;;;;;;5031061;28;20120;-65
2023/05/03 12:20:23;;;;;;;4.65;2.05;;;15.50;90.40;;;;;;5050858;28;20037;-65
2023/05/03 12:22:54;;;;;;;5.15;2.22;;;15.60;90.00;;;;;;5050237;28;20037;-64
2023/05/03 12:25:21;;;;;;;4.90;2.30;;;15.60;89.60;;;;;;5049622;28;20094;-66
2023/05/03 12:27:47;;;;;;;6.95;2.50;;;15.60;89.50;;;;;;5029089;28;20045;-66
2023/05/03 12:30:13;;;;;;;4.35;2.65;;;15.70;89.00;;;;;;5030311;28;20053;-65
2023/05/03 12:32:39;;;;;;;4.43;2.40;;;15.70;87.60;;;;;;5030368;28;20053;-64
2023/05/03 12:35:08;;;;;;;4.82;2.50;;;15.70;87.80;;;;;;5030287;28;20041;-64
2023/05/03 12:37:34;;;;;;;4.82;2.20;;;15.80;86.60;;;;;;5030062;28;20519;-66
2023/05/03 12:40:00;;;;;;;5.32;2.20;;;15.70;86.70;;;;;;5030876;28;20657;-65
2023/05/03 12:42:27;;;;;;;4.38;1.95;;;15.80;86.30;;;;;;5030359;28;20093;-64
2023/05/03 12:44:58;;;;;;;5.47;2.53;;;15.80;87.40;;;;;;5030446;28;20061;-65
2023/05/03 12:47:25;;;;;;;7.03;2.13;;;15.70;85.10;;;;;;5045926;28;20029;-64
2023/05/03 12:49:51;;;;;;;5.55;2.22;;;15.70;84.60;;;;;;5047483;28;20060;-64
2023/05/03 12:52:17;;;;;;;4.97;2.35;;;15.70;84.80;;;;;;5030936;28;20405;-64
2023/05/03 12:54:45;;;;;;;6.40;2.70;;;15.60;84.70;;;;;;5030765;28;20449;-64